createdAt,value
2023-05-04T00:01:25.631Z,28.16
2023-05-04T00:03:55.759Z,28.20
2023-05-04T00:06:24.282Z,28.24
2023-05-04T00:08:52.649Z,28.29
2023-05-04T00:11:21.252Z,28.33
2023-05-04T00:13:49.632Z,28.38
2023-05-04T00:16:18.078Z,28.43
2023-05-04T00:18:46.669Z,28.48
2023-05-04T00:21:15.059Z,28.53
2023-05-04T00:23:43.477Z,28.59
2023-05-04T00:26:12.097Z,28.66
2023-05-04T00:28:40.830Z,28.71
2023-05-04T00:31:09.198Z,28.76
2023-05-04T00:33:37.669Z,28.81
2023-05-04T00:36:06.200Z,28.87
2023-05-04T00:38:51.141Z,28.93
2023-05-04T00:41:20.731Z,28.99
2023-05-04T00:43:49.605Z,29.04
2023-05-04T00:46:18.767Z,29.09
2023-05-04T00:48:52.507Z,29.15
2023-05-04T00:51:23.088Z,29.21
2023-05-04T00:53:53.052Z,29.28
2023-05-04T00:56:24.920Z,29.35
2023-05-04T00:58:58.856Z,29.44
2023-05-04T01:01:27.273Z,29.58
2023-05-04T01:03:57.442Z,29.68
2023-05-04T01:07:02.751Z,29.74
2023-05-04T01:09:57.583Z,29.85
2023-05-04T01:12:37.863Z,29.92
2023-05-04T01:15:09.142Z,29.97
2023-05-04T01:17:37.810Z,30.02
2023-05-04T01:20:07.297Z,30.07
2023-05-04T01:22:37.019Z,30.13
2023-05-04T01:25:07.100Z,30.19
2023-05-04T01:27:44.401Z,30.24
2023-05-04T01:30:16.944Z,30.30
2023-05-04T01:32:46.960Z,30.37
2023-05-04T01:35:15.555Z,30.42
2023-05-04T01:37:43.959Z,30.48
2023-05-04T01:40:12.889Z,30.55
2023-05-04T01:42:41.294Z,30.60
2023-05-04T01:45:10.454Z,30.66
2023-05-04T01:47:38.866Z,30.71
2023-05-04T01:50:07.923Z,30.78
2023-05-04T01:52:36.558Z,30.84
2023-05-04T01:55:05.147Z,30.90
2023-05-04T01:57:33.535Z,30.95
2023-05-04T02:00:02.050Z,31.04
2023-05-04T02:02:30.917Z,31.09
2023-05-04T02:04:59.361Z,31.16
2023-05-04T02:07:27.758Z,31.21
2023-05-04T02:09:56.124Z,31.29
2023-05-04T02:12:24.498Z,31.35
2023-05-04T02:14:52.940Z,31.42
2023-05-04T02:17:21.397Z,31.47
2023-05-04T02:19:49.845Z,31.54
2023-05-04T02:22:18.315Z,31.59
2023-05-04T02:24:46.769Z,31.67
2023-05-04T02:27:15.141Z,31.74
2023-05-04T02:29:43.533Z,31.81
2023-05-04T02:32:11.935Z,31.89
2023-05-04T02:34:40.393Z,31.95
2023-05-04T02:37:08.801Z,32.04
2023-05-04T02:39:37.496Z,32.10
2023-05-04T02:42:05.948Z,32.18
2023-05-04T02:44:34.368Z,32.24
2023-05-04T02:47:03.313Z,32.30
2023-05-04T02:49:32.026Z,32.38
2023-05-04T02:52:00.467Z,32.44
2023-05-04T02:54:28.916Z,32.51
2023-05-04T02:56:57.296Z,32.56
2023-05-04T02:59:25.727Z,32.61
2023-05-04T03:01:54.224Z,32.67
2023-05-04T03:04:22.868Z,32.73
2023-05-04T03:06:51.323Z,32.81
2023-05-04T03:09:19.765Z,32.89
2023-05-04T03:11:48.149Z,32.96
2023-05-04T03:14:17.330Z,33.02
2023-05-04T03:16:45.781Z,33.11
2023-05-04T03:19:14.252Z,33.17
2023-05-04T03:21:42.650Z,33.26
2023-05-04T03:24:12.392Z,33.31
2023-05-04T03:26:40.861Z,33.38
2023-05-04T03:29:09.326Z,33.47
2023-05-04T03:31:38.255Z,33.55
2023-05-04T03:34:06.682Z,33.64
2023-05-04T03:36:35.070Z,33.70
2023-05-04T03:39:03.526Z,33.79
2023-05-04T03:41:31.943Z,33.86
2023-05-04T03:44:00.401Z,33.93
2023-05-04T03:46:28.865Z,34.01
2023-05-04T03:48:58.476Z,34.10
2023-05-04T03:51:27.135Z,34.18
2023-05-04T03:53:55.730Z,34.25
2023-05-04T03:56:24.123Z,34.32
2023-05-04T03:58:52.502Z,34.39
2023-05-04T04:01:20.967Z,34.47
2023-05-04T04:03:49.639Z,34.55
2023-05-04T04:06:18.401Z,34.65
2023-05-04T04:08:46.801Z,34.69
2023-05-04T04:11:15.255Z,34.79
2023-05-04T04:13:43.627Z,34.85
2023-05-04T04:16:12.446Z,34.93
2023-05-04T04:18:41.314Z,35.01
2023-05-04T04:21:11.402Z,35.12
2023-05-04T04:23:40.100Z,35.22
2023-05-04T04:26:08.520Z,35.30
2023-05-04T04:28:37.200Z,35.38
2023-05-04T04:31:05.625Z,35.44
2023-05-04T04:33:35.671Z,35.50
2023-05-04T04:36:04.101Z,35.59
2023-05-04T04:38:32.492Z,35.72
2023-05-04T04:41:00.903Z,35.82
2023-05-04T04:43:29.272Z,35.92
2023-05-04T04:45:58.019Z,36.04
2023-05-04T04:48:26.853Z,36.17
2023-05-04T04:50:55.638Z,36.29
2023-05-04T04:53:24.176Z,36.40
2023-05-04T04:55:53.214Z,36.50
2023-05-04T04:58:22.112Z,36.61
2023-05-04T05:00:53.058Z,36.61
2023-05-04T05:03:21.511Z,36.52
2023-05-04T05:05:49.918Z,36.33
2023-05-04T05:08:18.294Z,36.15
2023-05-04T05:10:46.701Z,35.97
2023-05-04T05:13:15.181Z,35.84
2023-05-04T05:15:43.726Z,35.72
2023-05-04T05:18:12.708Z,35.63
2023-05-04T05:20:41.118Z,35.69
2023-05-04T05:23:09.556Z,35.78
2023-05-04T05:25:39.467Z,35.91
2023-05-04T05:28:08.144Z,36.08
2023-05-04T05:30:36.613Z,36.22
2023-05-04T05:33:05.150Z,36.30
2023-05-04T05:35:33.607Z,36.31
2023-05-04T05:38:02.075Z,36.29
2023-05-04T05:40:30.915Z,36.27
2023-05-04T05:42:59.313Z,36.35
2023-05-04T05:45:27.800Z,36.44
2023-05-04T05:47:56.179Z,36.55
2023-05-04T05:50:25.146Z,36.63
2023-05-04T05:52:53.577Z,36.59
2023-05-04T05:55:21.962Z,36.55
2023-05-04T05:57:50.550Z,36.44
2023-05-04T06:00:19.637Z,36.48
2023-05-04T06:02:48.157Z,36.48
2023-05-04T06:05:16.662Z,36.47
2023-05-04T06:07:45.119Z,36.48
2023-05-04T06:10:13.511Z,36.45
2023-05-04T06:12:41.962Z,36.52
2023-05-04T06:15:10.702Z,36.56
2023-05-04T06:17:39.569Z,36.49
2023-05-04T06:20:09.192Z,36.44
2023-05-04T06:22:37.681Z,36.36
2023-05-04T06:25:08.254Z,36.41
2023-05-04T06:27:36.990Z,36.51
2023-05-04T06:30:06.529Z,36.68
2023-05-04T06:32:36.145Z,36.66
2023-05-04T06:35:04.631Z,36.63
2023-05-04T06:37:33.534Z,36.57
2023-05-04T06:40:01.945Z,36.55
2023-05-04T06:42:33.497Z,36.61
2023-05-04T06:45:01.953Z,36.51
2023-05-04T06:47:30.400Z,36.44
2023-05-04T06:49:58.879Z,36.51
2023-05-04T06:52:30.586Z,36.59
2023-05-04T06:55:00.650Z,36.71
2023-05-04T06:57:31.348Z,36.77
2023-05-04T06:59:59.827Z,36.79
2023-05-04T07:02:28.216Z,36.89
2023-05-04T07:04:58.112Z,36.92
2023-05-04T07:07:26.543Z,36.91
2023-05-04T07:09:55.213Z,36.88
2023-05-04T07:12:23.601Z,36.94
2023-05-04T07:14:51.976Z,37.04
2023-05-04T07:17:22.767Z,37.09
2023-05-04T07:19:53.241Z,37.13
2023-05-04T07:22:24.456Z,37.12
2023-05-04T07:24:53.059Z,37.13
2023-05-04T07:27:21.430Z,37.06
2023-05-04T07:29:51.761Z,36.97
2023-05-04T07:32:20.681Z,37.03
2023-05-04T07:34:49.110Z,37.02
2023-05-04T07:37:17.581Z,37.13
2023-05-04T07:39:46.084Z,37.09
2023-05-04T07:42:14.499Z,37.16
2023-05-04T07:44:43.171Z,37.23
2023-05-04T07:47:11.770Z,37.29
2023-05-04T07:49:40.148Z,37.33
2023-05-04T07:52:08.509Z,37.34
2023-05-04T07:54:37.469Z,37.28
2023-05-04T07:57:06.219Z,37.21
2023-05-04T07:59:34.899Z,37.21
2023-05-04T08:02:03.490Z,37.18
2023-05-04T08:04:31.949Z,37.16
2023-05-04T08:07:00.482Z,37.17
2023-05-04T08:09:28.848Z,37.12
2023-05-04T08:11:57.281Z,37.06
2023-05-04T08:14:25.699Z,37.03
2023-05-04T08:16:54.258Z,36.96
2023-05-04T08:19:24.068Z,36.88
2023-05-04T08:21:52.435Z,36.73
2023-05-04T08:24:20.937Z,36.56
2023-05-04T08:26:55.895Z,36.42
2023-05-04T08:29:28.446Z,36.26
2023-05-04T08:31:58.929Z,36.10
2023-05-04T08:34:28.536Z,35.99
2023-05-04T08:36:57.143Z,35.88
2023-05-04T08:39:25.552Z,35.77
2023-05-04T08:41:54.388Z,35.68
2023-05-04T08:44:23.418Z,35.63
2023-05-04T08:46:55.059Z,35.58
2023-05-04T08:49:24.779Z,35.56
2023-05-04T08:51:53.658Z,35.57
2023-05-04T08:54:23.564Z,35.56
2023-05-04T08:56:53.495Z,35.54
2023-05-04T08:59:24.175Z,35.53
2023-05-04T09:02:00.707Z,35.50
2023-05-04T09:04:29.869Z,35.46
2023-05-04T09:06:59.488Z,35.44
2023-05-04T09:09:30.246Z,35.34
2023-05-04T09:11:59.915Z,35.26
2023-05-04T09:14:35.561Z,35.19
2023-05-04T09:17:05.421Z,35.11
2023-05-04T09:19:36.960Z,35.06
2023-05-04T09:22:16.139Z,34.99
2023-05-04T09:24:45.277Z,34.95
2023-05-04T09:27:16.920Z,34.91
2023-05-04T09:29:46.026Z,34.90
2023-05-04T09:32:18.207Z,34.88
2023-05-04T09:34:50.786Z,34.85
2023-05-04T09:37:23.011Z,34.83
2023-05-04T09:39:56.482Z,34.82
2023-05-04T09:42:26.672Z,34.81
2023-05-04T09:45:12.009Z,34.78
2023-05-04T09:47:42.331Z,34.74
2023-05-04T09:50:26.496Z,34.68
2023-05-04T09:52:55.974Z,34.64
2023-05-04T09:55:25.864Z,34.60
2023-05-04T09:57:54.338Z,34.54
2023-05-04T10:00:22.905Z,34.48
2023-05-04T10:02:52.115Z,34.43
2023-05-04T10:05:22.658Z,34.35
2023-05-04T10:07:52.088Z,34.28
2023-05-04T10:10:20.500Z,34.23
2023-05-04T10:12:49.044Z,34.19
2023-05-04T10:15:18.665Z,34.16
2023-05-04T10:18:32.054Z,34.14
2023-05-04T10:21:19.098Z,34.10
2023-05-04T10:24:17.696Z,34.06
2023-05-04T10:27:00.695Z,34.01
2023-05-04T10:29:34.092Z,33.97
2023-05-04T10:32:03.265Z,33.92
2023-05-04T10:34:33.050Z,33.87
2023-05-04T10:37:02.760Z,33.81
2023-05-04T10:39:33.221Z,33.76
2023-05-04T10:42:02.548Z,33.72
2023-05-04T10:44:53.352Z,33.68
2023-05-04T10:47:35.517Z,33.64
2023-05-04T10:50:10.574Z,33.60
2023-05-04T10:52:52.030Z,33.56
2023-05-04T10:55:21.594Z,33.53
2023-05-04T10:57:57.973Z,33.47
2023-05-04T11:00:38.188Z,33.43
2023-05-04T11:03:10.571Z,33.40
2023-05-04T11:05:55.385Z,33.36
2023-05-04T11:08:26.578Z,33.32
2023-05-04T11:11:05.460Z,33.29
2023-05-04T11:13:48.092Z,33.25
2023-05-04T11:16:27.916Z,33.20
2023-05-04T11:18:56.555Z,33.17
2023-05-04T11:21:26.749Z,33.12
2023-05-04T11:23:59.255Z,33.08
2023-05-04T11:26:29.503Z,33.04
2023-05-04T11:28:58.194Z,32.98
2023-05-04T11:31:26.725Z,32.92
2023-05-04T11:33:56.228Z,32.84
2023-05-04T11:36:25.590Z,32.78
2023-05-04T11:38:58.623Z,32.73
2023-05-04T11:41:30.735Z,32.67
2023-05-04T11:44:01.369Z,32.62
2023-05-04T11:46:30.375Z,32.57
2023-05-04T11:49:00.170Z,32.51
2023-05-04T11:51:30.169Z,32.48
2023-05-04T11:54:01.092Z,32.44
2023-05-04T11:56:29.690Z,32.43
2023-05-04T11:59:08.388Z,32.45
2023-05-04T12:01:38.072Z,32.47
2023-05-04T12:04:07.525Z,32.49
2023-05-04T12:06:35.977Z,32.52
2023-05-04T12:09:09.627Z,32.52
2023-05-04T12:11:39.355Z,32.54
2023-05-04T12:14:14.709Z,32.56
2023-05-04T12:16:43.902Z,32.57
2023-05-04T12:19:16.933Z,32.58
2023-05-04T12:21:53.445Z,32.58
2023-05-04T12:24:26.236Z,32.56
2023-05-04T12:26:54.617Z,32.56
2023-05-04T12:29:23.148Z,32.53
2023-05-04T12:31:52.260Z,32.49
2023-05-04T12:34:20.647Z,32.45
2023-05-04T12:36:52.373Z,32.40
2023-05-04T12:39:20.827Z,32.38
2023-05-04T12:41:49.181Z,32.32
2023-05-04T12:44:18.107Z,32.28
2023-05-04T12:46:46.742Z,32.22
2023-05-04T12:49:15.706Z,32.19
2023-05-04T12:51:44.435Z,32.14
2023-05-04T12:54:12.821Z,32.09
2023-05-04T12:56:41.240Z,32.05
2023-05-04T12:59:09.613Z,32.01
2023-05-04T13:01:38.296Z,31.95
2023-05-04T13:04:06.941Z,31.90
2023-05-04T13:06:35.407Z,31.86
2023-05-04T13:09:06.703Z,31.81
2023-05-04T13:11:35.109Z,31.76
2023-05-04T13:14:03.729Z,31.72
2023-05-04T13:16:32.223Z,31.69
2023-05-04T13:19:00.771Z,31.67
2023-05-04T13:21:29.256Z,31.63
2023-05-04T13:23:58.555Z,31.61
2023-05-04T13:26:27.108Z,31.59
2023-05-04T13:28:55.521Z,31.56
2023-05-04T13:31:23.987Z,31.54
2023-05-04T13:33:52.486Z,31.52
2023-05-04T13:36:20.841Z,31.49
2023-05-04T13:38:49.265Z,31.46
2023-05-04T13:41:18.126Z,31.43
2023-05-04T13:43:46.572Z,31.38
2023-05-04T13:46:15.062Z,31.34
2023-05-04T13:48:43.467Z,31.31
2023-05-04T13:51:11.868Z,31.25
2023-05-04T13:53:40.251Z,31.22
2023-05-04T13:56:08.718Z,31.18
2023-05-04T13:58:37.313Z,31.16
2023-05-04T14:01:05.762Z,31.11
2023-05-04T14:03:34.261Z,31.08
2023-05-04T14:06:02.702Z,31.06
2023-05-04T14:08:31.128Z,31.04
2023-05-04T14:10:59.677Z,31.01
2023-05-04T14:13:28.581Z,30.98
2023-05-04T14:15:56.999Z,30.96
2023-05-04T14:18:25.962Z,30.93
2023-05-04T14:20:54.404Z,30.91
2023-05-04T14:23:22.811Z,30.89
2023-05-04T14:25:52.992Z,30.87
2023-05-04T14:28:21.388Z,30.85
2023-05-04T14:30:49.849Z,30.84
2023-05-04T14:33:18.317Z,30.82
2023-05-04T14:35:48.378Z,30.78
2023-05-04T14:38:17.098Z,30.78
2023-05-04T14:40:46.622Z,30.76
2023-05-04T14:43:16.780Z,30.74
2023-05-04T14:45:45.206Z,30.73
2023-05-04T14:48:13.739Z,30.71
2023-05-04T14:50:42.649Z,30.69
2023-05-04T14:53:11.480Z,30.66
2023-05-04T14:55:42.833Z,30.64
2023-05-04T14:58:11.597Z,30.61
2023-05-04T15:00:40.132Z,30.60
2023-05-04T15:03:08.894Z,30.57
2023-05-04T15:05:37.410Z,30.55
2023-05-04T15:08:06.018Z,30.54
2023-05-04T15:10:35.108Z,30.53
2023-05-04T15:13:04.539Z,30.51
2023-05-04T15:15:32.927Z,30.50
2023-05-04T15:18:01.446Z,30.50
2023-05-04T15:20:29.971Z,30.50
2023-05-04T15:22:58.340Z,30.49
2023-05-04T15:25:28.287Z,30.48
2023-05-04T15:27:56.682Z,30.47
2023-05-04T15:30:25.073Z,30.47
2023-05-04T15:32:53.833Z,30.46
2023-05-04T15:35:22.296Z,30.46
2023-05-04T15:37:50.720Z,30.45
2023-05-04T15:40:19.123Z,30.46
2023-05-04T15:42:47.671Z,30.45
2023-05-04T15:45:16.420Z,30.43
2023-05-04T15:47:46.239Z,30.44
2023-05-04T15:50:14.742Z,30.42
2023-05-04T15:52:43.147Z,30.42
2023-05-04T15:55:24.742Z,30.41
2023-05-04T15:57:54.840Z,30.41
2023-05-04T16:00:23.556Z,30.41
2023-05-04T16:02:52.185Z,30.40
2023-05-04T16:05:21.429Z,30.38
2023-05-04T16:07:49.819Z,30.35
2023-05-04T16:10:18.202Z,30.34
2023-05-04T16:12:46.739Z,30.32
2023-05-04T16:15:16.001Z,30.31
2023-05-04T16:17:44.416Z,30.29
2023-05-04T16:20:13.138Z,30.29
2023-05-04T16:22:41.497Z,30.27
2023-05-04T16:25:11.190Z,30.25
2023-05-04T16:27:40.551Z,30.24
2023-05-04T16:30:10.049Z,30.22
2023-05-04T16:32:39.092Z,30.20
2023-05-04T16:35:08.148Z,30.19
2023-05-04T16:37:38.385Z,30.18
2023-05-04T16:40:16.670Z,30.17
2023-05-04T16:42:45.846Z,30.13
2023-05-04T16:45:15.156Z,30.11
2023-05-04T16:47:45.067Z,30.09
2023-05-04T16:50:14.693Z,30.07
2023-05-04T16:52:43.629Z,30.04
2023-05-04T16:55:12.715Z,30.01
2023-05-04T16:57:41.325Z,29.97
2023-05-04T17:00:11.568Z,29.93
2023-05-04T17:02:40.070Z,29.91
2023-05-04T17:05:11.165Z,29.87
2023-05-04T17:07:40.683Z,29.84
2023-05-04T17:10:09.888Z,29.82
2023-05-04T17:12:38.372Z,29.80
2023-05-04T17:15:07.588Z,29.78
2023-05-04T17:17:36.338Z,29.76
2023-05-04T17:20:05.345Z,29.73
2023-05-04T17:22:34.234Z,29.71
2023-05-04T17:25:02.777Z,29.68
2023-05-04T17:27:31.326Z,29.65
2023-05-04T17:29:59.829Z,29.63
2023-05-04T17:32:28.552Z,29.60
2023-05-04T17:35:08.450Z,29.57
2023-05-04T17:37:44.701Z,29.53
2023-05-04T17:40:14.405Z,29.51
2023-05-04T17:42:42.778Z,29.48
2023-05-04T17:45:11.578Z,29.46
2023-05-04T17:47:40.095Z,29.44
2023-05-04T17:50:09.206Z,29.43
2023-05-04T17:52:38.288Z,29.41
2023-05-04T17:55:07.065Z,29.38
2023-05-04T17:57:35.508Z,29.37
2023-05-04T18:00:06.108Z,29.35
2023-05-04T18:02:35.134Z,29.33
2023-05-04T18:05:04.153Z,29.33
2023-05-04T18:07:32.520Z,29.32
2023-05-04T18:10:01.692Z,29.32
2023-05-04T18:12:30.202Z,29.32
2023-05-04T18:14:58.778Z,29.32
2023-05-04T18:17:28.249Z,29.30
2023-05-04T18:19:57.669Z,29.30
2023-05-04T18:22:26.204Z,29.32
2023-05-04T18:24:55.314Z,29.32
2023-05-04T18:27:23.826Z,29.31
2023-05-04T18:29:53.827Z,29.31
2023-05-04T18:32:22.234Z,29.32
2023-05-04T18:34:53.161Z,29.32
2023-05-04T18:37:22.613Z,29.33
2023-05-04T18:39:51.104Z,29.32
2023-05-04T18:42:19.600Z,29.33
2023-05-04T18:44:48.023Z,29.31
2023-05-04T18:47:16.618Z,29.31
2023-05-04T18:49:48.098Z,29.31
2023-05-04T18:52:16.564Z,29.32
2023-05-04T18:54:44.922Z,29.32
2023-05-04T18:57:13.999Z,29.31
2023-05-04T18:59:42.432Z,29.30
2023-05-04T19:02:10.815Z,29.30
2023-05-04T19:04:39.176Z,29.29
2023-05-04T19:07:07.616Z,29.28
2023-05-04T19:09:36.042Z,29.24
2023-05-04T19:12:04.992Z,29.24
2023-05-04T19:14:33.972Z,29.22
2023-05-04T19:17:03.229Z,29.20
2023-05-04T19:19:32.093Z,29.18
2023-05-04T19:22:00.719Z,29.18
2023-05-04T19:24:29.178Z,29.17
2023-05-04T19:26:58.353Z,29.17
2023-05-04T19:29:27.142Z,29.18
2023-05-04T19:31:55.569Z,29.20
2023-05-04T19:34:23.999Z,29.21
2023-05-04T19:36:52.618Z,29.21
2023-05-04T19:39:21.403Z,29.22
2023-05-04T19:41:49.900Z,29.23
2023-05-04T19:44:18.269Z,29.24
2023-05-04T19:46:48.229Z,29.24
2023-05-04T19:49:16.664Z,29.26
2023-05-04T19:51:45.884Z,29.28
2023-05-04T19:54:14.329Z,29.30
2023-05-04T19:56:42.714Z,29.31
2023-05-04T19:59:11.082Z,29.33
2023-05-04T20:01:39.488Z,29.34
2023-05-04T20:04:09.321Z,29.35
2023-05-04T20:06:38.201Z,29.35
2023-05-04T20:09:06.726Z,29.36
2023-05-04T20:11:36.879Z,29.37
2023-05-04T20:14:05.663Z,29.38
2023-05-04T20:16:34.162Z,29.38
2023-05-04T20:19:03.959Z,29.40
2023-05-04T20:21:33.237Z,29.40
2023-05-04T20:24:01.634Z,29.42
2023-05-04T20:26:30.010Z,29.44
2023-05-04T20:28:58.374Z,29.45
2023-05-04T20:31:27.916Z,29.44
2023-05-04T20:33:56.334Z,29.45
2023-05-04T20:36:24.773Z,29.45
2023-05-04T20:38:53.167Z,29.46
2023-05-04T20:41:22.658Z,29.47
2023-05-04T20:43:51.196Z,29.47
2023-05-04T20:46:19.584Z,29.47
2023-05-04T20:48:48.029Z,29.49
2023-05-04T20:51:16.479Z,29.49
2023-05-04T20:53:44.857Z,29.51
2023-05-04T20:56:13.345Z,29.51
2023-05-04T20:58:42.246Z,29.50
2023-05-04T21:01:10.753Z,29.51
2023-05-04T21:03:39.233Z,29.51
2023-05-04T21:06:07.802Z,29.52
2023-05-04T21:08:36.323Z,29.51
2023-05-04T21:11:04.885Z,29.51
2023-05-04T21:13:33.728Z,29.51
2023-05-04T21:16:02.525Z,29.48
2023-05-04T21:18:30.989Z,29.49
2023-05-04T21:20:59.574Z,29.48
2023-05-04T21:23:28.039Z,29.47
2023-05-04T21:26:07.113Z,29.46
2023-05-04T21:28:35.510Z,29.45
2023-05-04T21:31:09.117Z,29.45
2023-05-04T21:33:37.685Z,29.43
2023-05-04T21:36:15.613Z,29.43
2023-05-04T21:38:44.279Z,29.41
2023-05-04T21:41:17.747Z,29.40
2023-05-04T21:43:46.332Z,29.39
2023-05-04T21:46:14.830Z,29.37
2023-05-04T21:48:43.317Z,29.37
2023-05-04T21:51:11.750Z,29.36
2023-05-04T21:53:40.111Z,29.34
2023-05-04T21:56:09.923Z,29.32
2023-05-04T21:58:40.791Z,29.33
2023-05-04T22:01:09.899Z,29.32
2023-05-04T22:03:38.352Z,29.32
2023-05-04T22:06:07.451Z,29.29
2023-05-04T22:08:36.366Z,29.28
2023-05-04T22:11:05.162Z,29.29
2023-05-04T22:13:33.679Z,29.27
2023-05-04T22:16:02.165Z,29.26
2023-05-04T22:18:30.518Z,29.24
2023-05-04T22:20:58.891Z,29.22
2023-05-04T22:23:27.418Z,29.21
2023-05-04T22:25:55.804Z,29.19
2023-05-04T22:28:24.341Z,29.17
2023-05-04T22:30:52.894Z,29.18
2023-05-04T22:33:21.328Z,29.15
2023-05-04T22:35:49.769Z,29.16
2023-05-04T22:38:18.154Z,29.17
2023-05-04T22:40:46.517Z,29.18
2023-05-04T22:43:14.885Z,29.17
2023-05-04T22:45:43.329Z,29.18
2023-05-04T22:48:11.766Z,29.20
2023-05-04T22:50:40.131Z,29.22
2023-05-04T22:53:08.816Z,29.22
2023-05-04T22:55:37.546Z,29.24
2023-05-04T22:58:05.985Z,29.25
2023-05-04T23:00:34.392Z,29.25
2023-05-04T23:03:02.802Z,29.26
2023-05-04T23:05:31.257Z,29.27
2023-05-04T23:07:59.635Z,29.28
2023-05-04T23:10:27.990Z,29.28
2023-05-04T23:12:57.128Z,29.28
2023-05-04T23:15:26.095Z,29.30
2023-05-04T23:17:54.505Z,29.31
2023-05-04T23:20:23.242Z,29.32
2023-05-04T23:22:52.020Z,29.33
2023-05-04T23:25:20.485Z,29.33
2023-05-04T23:27:48.920Z,29.35
2023-05-04T23:30:17.386Z,29.36
2023-05-04T23:32:45.871Z,29.36
2023-05-04T23:35:14.807Z,29.38
2023-05-04T23:37:43.611Z,29.39
2023-05-04T23:40:12.277Z,29.41
2023-05-04T23:42:40.688Z,29.43
2023-05-04T23:45:10.001Z,29.45
2023-05-04T23:47:38.518Z,29.47
2023-05-04T23:50:07.707Z,29.50
2023-05-04T23:52:36.166Z,29.52
2023-05-04T23:55:04.951Z,29.56
2023-05-04T23:57:33.329Z,29.57
